^^
Saratoga-Weather Station Historical Data
Daily Summary for February 5, 2021 Units:  English    Metric   Both
Daily Weekly Monthly Yearly Custom
  High: Low: Average:
Temperature: 41.4 °F 34.2 °F 37.9 °F
Dew Point: 37.8 °F 33.1 °F 35.8 °F
Humidity: 96% 86% 92%
Wind Speed: 8.1mph 0mph 1mph
Wind Gust: 11mph - -
Wind- - SW
Pressure: 29.8 in 29.6 in -
Precipitation: 0.12 in    
Historical Graphs
 
 
Tabular Data for February 5, 2021
Time Temperature Dew Point Pressure Wind Wind Speed Wind Gust Humidity Rainfall Rate (Hourly) solar
00:02 38.3 °F 35.4 °F 29.6 in West 2.9 mph 4 mph 89% 0 in 0 W/m2
00:07 38.3 °F 35.4 °F 29.6 in WSW 2 mph 7 mph 89% 0 in 0 W/m2
00:12 38.3 °F 35.4 °F 29.6 in SW 4.9 mph 10 mph 89% 0 in 0 W/m2
00:17 38.1 °F 35.2 °F 29.6 in WNW 2 mph 8 mph 89% 0 in 0 W/m2
00:22 38.1 °F 35.2 °F 29.6 in West 2 mph 10 mph 89% 0 in 0 W/m2
00:27 37.9 °F 35.1 °F 29.6 in NW 2.9 mph 5 mph 89% 0 in 0 W/m2
00:32 37.9 °F 35.1 °F 29.6 in NW 2 mph 5 mph 89% 0 in 0 W/m2
00:37 37.9 °F 35.1 °F 29.6 in West 2 mph 5 mph 89% 0 in 0 W/m2
00:42 37.9 °F 35.1 °F 29.6 in Calm   1 mph 89% 0 in 0 W/m2
00:47 37.9 °F 35.2 °F 29.6 in NW 6 mph 6 mph 90% 0 in 0 W/m2
00:52 37.9 °F 35.2 °F 29.6 in North 0.9 mph 3 mph 90% 0 in 0 W/m2
00:57 37.9 °F 35.2 °F 29.6 in NNW 2 mph 3 mph 90% 0 in 0 W/m2
01:02 38.1 °F 35.4 °F 29.6 in WNW 2 mph 4 mph 90% 0 in 0 W/m2
01:07 38.1 °F 35.4 °F 29.6 in Calm   4 mph 90% 0 in 0 W/m2
01:12 38.1 °F 35.4 °F 29.6 in Calm   4 mph 90% 0 in 0 W/m2
01:17 38.3 °F 35.6 °F 29.6 in WNW 2 mph 11 mph 90% 0 in 0 W/m2
01:22 38.3 °F 35.6 °F 29.6 in WNW 2 mph 5 mph 90% 0 in 0 W/m2
01:27 38.5 °F 35.8 °F 29.6 in SSW 2.9 mph 7 mph 90% 0 in 0 W/m2
01:32 38.5 °F 35.8 °F 29.6 in North 2 mph 4 mph 90% 0 in 0 W/m2
01:37 38.7 °F 36 °F 29.6 in NNW 2 mph 4 mph 90% 0 in 0 W/m2
01:42 38.7 °F 36 °F 29.6 in NNW 4.9 mph 7 mph 90% 0 in 0 W/m2
01:47 38.8 °F 36.1 °F 29.6 in WNW 4 mph 8 mph 90% 0 in 0 W/m2
01:52 38.8 °F 36.1 °F 29.6 in SE 0.9 mph 4 mph 90% 0 in 0 W/m2
01:57 39 °F 36.3 °F 29.6 in Calm   7 mph 90% 0 in 0 W/m2
02:02 39 °F 36.3 °F 29.6 in West 0.9 mph 3 mph 90% 0 in 0 W/m2
02:07 39 °F 36.1 °F 29.6 in NE 0.9 mph 1 mph 89% 0 in 0 W/m2
02:12 39 °F 36.1 °F 29.6 in NW 4 mph 6 mph 89% 0 in 0 W/m2
02:17 39.2 °F 36.3 °F 29.6 in West 6 mph 6 mph 89% 0 in 0 W/m2
02:22 39.4 °F 36.5 °F 29.6 in NNW 2 mph 3 mph 89% 0 in 0 W/m2
02:27 39.4 °F 36.5 °F 29.6 in WNW 2.9 mph 3 mph 89% 0 in 0 W/m2
02:32 39.4 °F 36.5 °F 29.6 in WNW 2 mph 5 mph 89% 0 in 0 W/m2
02:37 39.4 °F 36.5 °F 29.6 in Calm   2 mph 89% 0 in 0 W/m2
02:42 39.4 °F 36.5 °F 29.6 in SSW 2 mph 2 mph 89% 0 in 0 W/m2
02:48 39.4 °F 36.5 °F 29.6 in NW 0.9 mph 2 mph 89% 0 in 0 W/m2
02:53 39.4 °F 36.5 °F 29.6 in NW 0.9 mph 4 mph 89% 0 in 0 W/m2
02:58 39.4 °F 36.5 °F 29.6 in NW 0.9 mph 2 mph 89% 0 in 0 W/m2
03:03 39.4 °F 36.5 °F 29.6 in Calm   2 mph 89% 0 in 0 W/m2
03:08 39.4 °F 36.5 °F 29.6 in West 6 mph 6 mph 89% 0 in 0 W/m2
03:13 39.4 °F 36.5 °F 29.6 in West 0.9 mph 3 mph 89% 0 in 0 W/m2
03:18 39.4 °F 36.5 °F 29.6 in Calm   4 mph 89% 0 in 0 W/m2
03:23 39.4 °F 36.7 °F 29.6 in NW 2 mph 4 mph 90% 0 in 0 W/m2
03:28 39.4 °F 36.7 °F 29.6 in WNW 2 mph 3 mph 90% 0 in 0 W/m2
03:33 39.2 °F 36.5 °F 29.6 in West 0.9 mph 3 mph 90% 0 in 0 W/m2
03:38 39 °F 36.3 °F 29.6 in SW 4.9 mph 7 mph 90% 0 in 0 W/m2
03:43 39 °F 36.3 °F 29.6 in WNW 4.9 mph 6 mph 90% 0 in 0 W/m2
03:48 39 °F 36.3 °F 29.6 in WNW 2.9 mph 5 mph 90% 0 in 0 W/m2
03:53 39 °F 36.3 °F 29.6 in NW 2 mph 6 mph 90% 0 in 0 W/m2
03:58 38.8 °F 36.1 °F 29.6 in NW 8.1 mph 8 mph 90% 0.02 in 0 W/m2
04:03 38.7 °F 36 °F 29.6 in NW 0.9 mph 2 mph 90% 0.02 in 0 W/m2
04:08 38.1 °F 35.8 °F 29.6 in WNW 0.9 mph 4 mph 91% 0.03 in 0 W/m2
04:13 37.9 °F 35.6 °F 29.6 in Calm   2 mph 91% 0.05 in 0 W/m2
04:18 37.8 °F 35.4 °F 29.6 in WNW 2 mph 4 mph 91% 0.05 in 0 W/m2
04:23 37.4 °F 35.2 °F 29.6 in Calm   4 mph 92% 0.05 in 0 W/m2
04:28 37.2 °F 35.1 °F 29.6 in WNW 2 mph 5 mph 92% 0.05 in 0 W/m2
04:33 37.2 °F 35.1 °F 29.6 in NW 2 mph 4 mph 92% 0.05 in 0 W/m2
04:38 37.2 °F 35.4 °F 29.6 in WNW 2 mph 3 mph 93% 0.05 in 0 W/m2
04:43 37.2 °F 35.4 °F 29.6 in West 2.9 mph 3 mph 93% 0.05 in 0 W/m2
04:48 37.2 °F 35.4 °F 29.6 in WNW 0.9 mph 2 mph 93% 0.05 in 0 W/m2
04:53 37.4 °F 35.6 °F 29.6 in East 0.9 mph 1 mph 93% 0.05 in 0 W/m2
04:58 37.4 °F 35.6 °F 29.6 in Calm   3 mph 93% 0.03 in 0 W/m2
05:03 37.6 °F 35.8 °F 29.6 in Calm   2 mph 93% 0.03 in 0 W/m2
05:08 37.6 °F 35.8 °F 29.6 in Calm   4 mph 93% 0.02 in 0 W/m2
05:13 37.6 °F 36 °F 29.6 in WSW 2 mph 6 mph 94% 0.01 in 0 W/m2
05:18 37.8 °F 36 °F 29.6 in Calm   1 mph 93% 0.01 in 0 W/m2
05:23 37.8 °F 36 °F 29.6 in NW 2.9 mph 3 mph 93% 0.01 in 0 W/m2
05:28 37.8 °F 36 °F 29.6 in Calm   2 mph 93% 0.01 in 0 W/m2
05:33 37.8 °F 36 °F 29.6 in Calm   3 mph 93% 0.01 in 0 W/m2
05:38 37.8 °F 36 °F 29.6 in Calm     93% 0.01 in 0 W/m2
05:43 37.8 °F 36 °F 29.6 in NW 0.9 mph 1 mph 93% 0.01 in 0 W/m2
05:48 37.8 °F 36 °F 29.6 in West 2 mph 3 mph 93% 0.01 in 0 W/m2
05:53 37.8 °F 36.1 °F 29.6 in WNW 0.9 mph 2 mph 94% 0.01 in 0 W/m2
05:58 37.8 °F 36.1 °F 29.6 in West 0.9 mph 7 mph 94% 0.01 in 0 W/m2
06:03 37.9 °F 36.3 °F 29.6 in West 0.9 mph 2 mph 94% 0 in 0 W/m2
06:08 37.9 °F 36.3 °F 29.6 in Calm   5 mph 94% 0 in 0 W/m2
06:13 37.9 °F 36.1 °F 29.6 in NE 2.9 mph 3 mph 93% 0 in 0 W/m2
06:18 37.9 °F 36.1 °F 29.6 in ENE 0.9 mph 4 mph 93% 0 in 0 W/m2
06:23 37.9 °F 36.1 °F 29.6 in Calm   2 mph 93% 0 in 0 W/m2
06:28 37.9 °F 36.1 °F 29.6 in WNW 0.9 mph 3 mph 93% 0 in 0 W/m2
06:33 38.1 °F 36.3 °F 29.6 in NW 0.9 mph 2 mph 93% 0 in 0 W/m2
06:38 38.1 °F 36.3 °F 29.6 in Calm     93% 0 in 0 W/m2
06:43 38.1 °F 36.3 °F 29.6 in Calm   2 mph 93% 0 in 0 W/m2
06:48 38.1 °F 36.3 °F 29.6 in Calm   3 mph 93% 0 in 0 W/m2
06:53 38.1 °F 36.3 °F 29.6 in NW 2.9 mph 4 mph 93% 0 in 0 W/m2
06:58 38.1 °F 36.3 °F 29.6 in South 4.9 mph 7 mph 93% 0 in 0 W/m2
07:03 38.1 °F 36 °F 29.6 in WNW 0.9 mph 3 mph 92% 0 in 0 W/m2
07:08 38.1 °F 36 °F 29.6 in NW 7 mph 7 mph 92% 0 in 0 W/m2
07:13 38.1 °F 36 °F 29.6 in Calm   1 mph 92% 0 in 0 W/m2
07:18 38.1 °F 36 °F 29.6 in Calm   4 mph 92% 0 in 0 W/m2
07:23 38.1 °F 36 °F 29.6 in SSE 0.9 mph 3 mph 92% 0 in 0 W/m2
07:28 38.1 °F 36 °F 29.6 in Calm   4 mph 92% 0 in 0 W/m2
07:33 38.1 °F 36 °F 29.6 in NW 2 mph 3 mph 92% 0 in 0 W/m2
07:38 38.1 °F 36 °F 29.6 in SW 0.9 mph 7 mph 92% 0 in 0 W/m2
07:43 38.1 °F 36 °F 29.6 in WSW 2 mph 2 mph 92% 0 in 0 W/m2
07:48 38.1 °F 36 °F 29.6 in West 2 mph 7 mph 92% 0 in 0 W/m2
07:53 38.3 °F 36.1 °F 29.6 in NW 0.9 mph 2 mph 92% 0 in 0 W/m2
07:58 38.3 °F 36.1 °F 29.6 in Calm   2 mph 92% 0 in 0 W/m2
08:03 38.3 °F 36.1 °F 29.6 in Calm   4 mph 92% 0 in 0 W/m2
08:08 38.3 °F 36 °F 29.6 in Calm   1 mph 91% 0 in 0 W/m2
08:13 38.1 °F 35.8 °F 29.6 in Calm   2 mph 91% 0 in 0 W/m2
08:18 38.1 °F 36 °F 29.6 in NNW 2.9 mph 3 mph 92% 0 in 0 W/m2
08:23 38.1 °F 36 °F 29.6 in Calm   2 mph 92% 0 in 5 W/m2
08:28 38.1 °F 35.8 °F 29.6 in Calm   1 mph 91% 0 in 5 W/m2
08:33 38.3 °F 36.1 °F 29.6 in Calm   2 mph 92% 0 in 5 W/m2
08:38 38.1 °F 35.8 °F 29.6 in East 0.9 mph 1 mph 91% 0 in 7 W/m2
08:43 38.3 °F 36 °F 29.6 in NE 0.9 mph 4 mph 91% 0 in 7 W/m2
08:48 38.3 °F 36 °F 29.6 in ESE 2 mph 4 mph 91% 0 in 5 W/m2
08:53 38.5 °F 36.1 °F 29.6 in Calm     91% 0 in 5 W/m2
08:58 38.5 °F 36.1 °F 29.6 in ESE 0.9 mph 4 mph 91% 0 in 7 W/m2
09:03 38.3 °F 36.1 °F 29.6 in SE 0.9 mph 2 mph 92% 0 in 7 W/m2
09:08 38.3 °F 36.1 °F 29.6 in Calm   3 mph 92% 0 in 9 W/m2
09:13 38.3 °F 36.1 °F 29.6 in Calm     92% 0 in 11 W/m2
09:18 38.3 °F 36.1 °F 29.6 in WNW 0.9 mph 3 mph 92% 0 in 11 W/m2
09:23 38.3 °F 36.1 °F 29.6 in NE 2 mph 2 mph 92% 0 in 12 W/m2
09:28 38.3 °F 36.1 °F 29.6 in NE 0.9 mph 1 mph 92% 0 in 14 W/m2
09:34 38.3 °F 36.1 °F 29.6 in Calm     92% 0 in 16 W/m2
09:39 38.5 °F 36.3 °F 29.6 in Calm     92% 0 in 16 W/m2
09:44 38.5 °F 36.3 °F 29.6 in Calm   2 mph 92% 0 in 21 W/m2
09:49 38.5 °F 36.7 °F 29.6 in Calm   1 mph 93% 0 in 25 W/m2
09:54 38.5 °F 36.3 °F 29.6 in ESE 0.9 mph 4 mph 92% 0 in 33 W/m2
09:59 38.7 °F 36.9 °F 29.6 in ENE 0.9 mph 1 mph 93% 0 in 54 W/m2
10:04 38.7 °F 36.9 °F 29.6 in NNE 2 mph 4 mph 93% 0 in 47 W/m2
10:09 38.7 °F 36.9 °F 29.6 in East 0.9 mph 3 mph 93% 0.01 in 105 W/m2
10:14 38.7 °F 36.9 °F 29.6 in East 2 mph 4 mph 93% 0.01 in 84 W/m2
10:19 38.8 °F 37 °F 29.6 in ENE 2.9 mph 4 mph 93% 0.01 in 77 W/m2
10:24 38.8 °F 37 °F 29.6 in NE 2.9 mph 3 mph 93% 0.01 in 114 W/m2
10:29 39 °F 37.2 °F 29.6 in ENE 2 mph 3 mph 93% 0.01 in 97 W/m2
10:34 39 °F 37.2 °F 29.6 in NE 2 mph 2 mph 93% 0.01 in 86 W/m2
10:39 39.2 °F 37.4 °F 29.6 in WSW 0.9 mph 4 mph 93% 0.01 in 109 W/m2
10:44 39.4 °F 37.6 °F 29.6 in WSW 0.9 mph 2 mph 93% 0.01 in 40 W/m2
10:49 39.4 °F 37.2 °F 29.6 in NW 4 mph 4 mph 92% 0.01 in 47 W/m2
10:54 39.4 °F 37.2 °F 29.6 in NE 2.9 mph 4 mph 92% 0.01 in 42 W/m2
10:59 39.4 °F 37.2 °F 29.6 in Calm     92% 0.01 in 54 W/m2
11:04 39.4 °F 37.2 °F 29.6 in NE 0.9 mph 3 mph 92% 0.01 in 40 W/m2
11:09 39.4 °F 37.2 °F 29.6 in NE 0.9 mph 2 mph 92% 0 in 46 W/m2
11:14 39.4 °F 37 °F 29.6 in NE 0.9 mph 3 mph 91% 0 in 79 W/m2
11:19 39.6 °F 37.2 °F 29.6 in Calm   3 mph 91% 0 in 83 W/m2
11:24 39.7 °F 37 °F 29.6 in East 0.9 mph 5 mph 90% 0 in 65 W/m2
11:29 39.9 °F 37.2 °F 29.6 in NE 2 mph 3 mph 90% 0 in 51 W/m2
11:34 40.1 °F 37 °F 29.6 in NNW 2 mph 7 mph 89% 0 in 60 W/m2
11:39 40.3 °F 37 °F 29.6 in ENE 2 mph 7 mph 88% 0 in 105 W/m2
11:44 40.3 °F 36.7 °F 29.6 in ENE 6 mph 11 mph 87% 0 in 86 W/m2
11:49 40.5 °F 36.7 °F 29.6 in Calm   3 mph 86% 0 in 151 W/m2
11:54 40.6 °F 36.9 °F 29.6 in NNE 2 mph 11 mph 86% 0 in 113 W/m2
11:59 40.6 °F 36.9 °F 29.6 in Calm   3 mph 86% 0 in 128 W/m2
12:04 40.8 °F 37 °F 29.6 in Calm   4 mph 86% 0 in 155 W/m2
12:09 40.8 °F 37.2 °F 29.6 in NE 2 mph 3 mph 87% 0 in 113 W/m2
12:14 41 °F 37.2 °F 29.6 in NE 2 mph 3 mph 86% 0 in 90 W/m2
12:19 41.2 °F 37.4 °F 29.6 in NW 2 mph 4 mph 86% 0 in 88 W/m2
12:24 41.2 °F 37.4 °F 29.6 in NNW 0.9 mph 3 mph 86% 0 in 139 W/m2
12:29 41.2 °F 37.4 °F 29.6 in NNW 0.9 mph 1 mph 86% 0 in 127 W/m2
12:34 41.4 °F 37.8 °F 29.6 in NW 2.9 mph 4 mph 87% 0 in 153 W/m2
12:39 41.2 °F 37.4 °F 29.6 in Calm   7 mph 86% 0 in 116 W/m2
12:44 41.2 °F 37.4 °F 29.6 in NW 0.9 mph 2 mph 86% 0 in 72 W/m2
12:49 41.2 °F 37.4 °F 29.6 in North 0.9 mph 7 mph 86% 0 in 49 W/m2
12:54 41.2 °F 37.4 °F 29.6 in NW 0.9 mph 7 mph 86% 0 in 69 W/m2
12:59 41 °F 37.2 °F 29.6 in WSW 0.9 mph 4 mph 86% 0 in 56 W/m2
13:04 41 °F 37.2 °F 29.6 in NNE 0.9 mph 6 mph 86% 0 in 69 W/m2
13:09 40.8 °F 37.2 °F 29.6 in NW 2 mph 4 mph 87% 0 in 93 W/m2
13:14 40.8 °F 37.6 °F 29.6 in North 2 mph 2 mph 88% 0 in 67 W/m2
13:19 40.6 °F 37.4 °F 29.6 in WNW 2.9 mph 7 mph 88% 0 in 56 W/m2
13:24 40.5 °F 37.2 °F 29.6 in NW 2 mph 3 mph 88% 0 in 100 W/m2
13:29 40.5 °F 37.4 °F 29.6 in NW 0.9 mph 7 mph 89% 0 in 114 W/m2
13:34 40.5 °F 37.8 °F 29.6 in NNE 2.9 mph 3 mph 90% 0 in 83 W/m2
13:39 40.5 °F 37.8 °F 29.6 in Calm   3 mph 90% 0 in 84 W/m2
13:44 40.5 °F 37.8 °F 29.6 in Calm   6 mph 90% 0 in 53 W/m2
13:49 40.3 °F 37.6 °F 29.6 in Calm   2 mph 90% 0.01 in 79 W/m2
13:54 40.1 °F 37.4 °F 29.6 in NNW 0.9 mph 2 mph 90% 0.01 in 56 W/m2
13:59 40.1 °F 37.4 °F 29.6 in North 2 mph 2 mph 90% 0.01 in 44 W/m2
14:04 39.9 °F 37.2 °F 29.6 in NE 2 mph 3 mph 90% 0.01 in 53 W/m2
14:09 39.9 °F 37.2 °F 29.6 in SSE 4 mph 4 mph 90% 0.01 in 54 W/m2
14:14 39.7 °F 37 °F 29.6 in ENE 2 mph 3 mph 90% 0.02 in 53 W/m2
14:19 39.6 °F 36.9 °F 29.6 in WNW 4 mph 4 mph 90% 0.02 in 53 W/m2
14:24 39.4 °F 37 °F 29.6 in Calm   2 mph 91% 0.02 in 54 W/m2
14:29 39.4 °F 37 °F 29.6 in Calm     91% 0.02 in 46 W/m2
14:34 39.4 °F 37 °F 29.6 in Calm     91% 0.02 in 42 W/m2
14:39 39.4 °F 37 °F 29.6 in Calm   1 mph 91% 0.02 in 32 W/m2
14:44 39.4 °F 37.2 °F 29.6 in WNW 2.9 mph 3 mph 92% 0.02 in 46 W/m2
14:49 39.2 °F 37 °F 29.6 in WNW 0.9 mph 3 mph 92% 0.02 in 35 W/m2
14:54 39 °F 36.9 °F 29.6 in Calm     92% 0.02 in 32 W/m2
14:59 39 °F 36.9 °F 29.6 in ENE 2 mph 3 mph 92% 0.02 in 28 W/m2
15:04 39 °F 36.9 °F 29.6 in WNW 2 mph 5 mph 92% 0.02 in 28 W/m2
15:09 38.8 °F 36.7 °F 29.6 in NW 2 mph 2 mph 92% 0.03 in 32 W/m2
15:14 38.8 °F 36.7 °F 29.6 in SW 0.9 mph 4 mph 92% 0.02 in 35 W/m2
15:19 38.7 °F 36.5 °F 29.6 in Calm   3 mph 92% 0.02 in 35 W/m2
15:24 38.7 °F 36.5 °F 29.6 in Calm   3 mph 92% 0.02 in 40 W/m2
15:29 38.5 °F 36.3 °F 29.6 in Calm   2 mph 92% 0.03 in 42 W/m2
15:34 38.5 °F 36.3 °F 29.6 in Calm   3 mph 92% 0.02 in 33 W/m2
15:39 38.5 °F 36.3 °F 29.6 in Calm     92% 0.02 in 26 W/m2
15:44 38.5 °F 36.7 °F 29.6 in Calm   3 mph 93% 0.02 in 25 W/m2
15:49 38.5 °F 36.7 °F 29.6 in WNW 0.9 mph 2 mph 93% 0.02 in 21 W/m2
15:54 38.3 °F 36.5 °F 29.6 in Calm   2 mph 93% 0.02 in 18 W/m2
15:59 38.1 °F 36.3 °F 29.6 in Calm   4 mph 93% 0.02 in 14 W/m2
16:04 38.1 °F 36.3 °F 29.6 in Calm   1 mph 93% 0.02 in 12 W/m2
16:09 38.1 °F 36.3 °F 29.6 in West 0.9 mph 4 mph 93% 0.02 in 19 W/m2
16:14 37.9 °F 36.1 °F 29.6 in West 0.9 mph 1 mph 93% 0.02 in 21 W/m2
16:19 37.9 °F 36.1 °F 29.6 in WNW 0.9 mph 3 mph 93% 0.02 in 14 W/m2
16:24 37.9 °F 36.1 °F 29.6 in Calm     93% 0.02 in 9 W/m2
16:29 37.9 °F 36.1 °F 29.6 in Calm     93% 0.01 in 5 W/m2
16:34 37.8 °F 36 °F 29.6 in Calm   1 mph 93% 0.01 in 0 W/m2
16:39 37.8 °F 36 °F 29.6 in Calm     93% 0.01 in 0 W/m2
16:44 37.6 °F 35.8 °F 29.6 in Calm     93% 0.01 in 0 W/m2
16:49 37.4 °F 35.6 °F 29.6 in Calm   1 mph 93% 0.01 in 0 W/m2
16:54 37.2 °F 35.4 °F 29.6 in Calm     93% 0 in 0 W/m2
16:59 37.2 °F 35.6 °F 29.7 in Calm   1 mph 94% 0 in 0 W/m2
17:04 37.2 °F 35.6 °F 29.7 in Calm     94% 0 in 0 W/m2
17:09 37.2 °F 35.6 °F 29.7 in Calm     94% 0 in 0 W/m2
17:14 37.2 °F 35.6 °F 29.7 in Calm     94% 0 in 0 W/m2
17:19 37.2 °F 35.6 °F 29.7 in Calm     94% 0 in 0 W/m2
17:24 37.2 °F 35.6 °F 29.7 in Calm     94% 0 in 0 W/m2
17:29 37 °F 35.4 °F 29.7 in Calm     94% 0 in 0 W/m2
17:34 37 °F 35.8 °F 29.7 in Calm     95% 0 in 0 W/m2
17:39 37 °F 35.4 °F 29.7 in Calm     94% 0 in 0 W/m2
17:45 37 °F 35.8 °F 29.7 in Calm     95% 0 in 0 W/m2
17:50 37 °F 35.8 °F 29.7 in Calm     95% 0 in 0 W/m2
17:55 37 °F 35.8 °F 29.7 in Calm     95% 0 in 0 W/m2
18:00 37 °F 35.8 °F 29.7 in Calm     95% 0 in 0 W/m2
18:05 37 °F 35.8 °F 29.7 in Calm     95% 0 in 0 W/m2
18:10 37 °F 35.8 °F 29.7 in Calm     95% 0 in 0 W/m2
18:15 36.9 °F 35.6 °F 29.7 in Calm     95% 0 in 0 W/m2
18:20 36.7 °F 35.4 °F 29.7 in Calm     95% 0 in 0 W/m2
18:25 36.5 °F 35.2 °F 29.7 in Calm     95% 0 in 0 W/m2
18:30 36.3 °F 35.1 °F 29.7 in Calm     95% 0 in 0 W/m2
18:35 36.1 °F 34.9 °F 29.7 in Calm     95% 0 in 0 W/m2
18:40 36.1 °F 34.9 °F 29.7 in Calm     95% 0 in 0 W/m2
18:45 36.1 °F 34.9 °F 29.7 in Calm     95% 0 in 0 W/m2
18:50 36.1 °F 34.9 °F 29.7 in Calm     95% 0 in 0 W/m2
18:55 36.1 °F 34.9 °F 29.7 in Calm     95% 0 in 0 W/m2
19:00 36.1 °F 34.9 °F 29.7 in NNW 0.9 mph 1 mph 95% 0 in 0 W/m2
19:05 36.3 °F 35.1 °F 29.7 in Calm     95% 0 in 0 W/m2
19:10 36.3 °F 35.2 °F 29.7 in Calm     96% 0 in 0 W/m2
19:15 36.5 °F 35.4 °F 29.7 in Calm     96% 0 in 0 W/m2
19:20 36.5 °F 35.4 °F 29.7 in Calm     96% 0 in 0 W/m2
19:25 36.7 °F 35.6 °F 29.7 in Calm     96% 0 in 0 W/m2
19:30 36.5 °F 35.4 °F 29.7 in Calm   2 mph 96% 0 in 0 W/m2
19:35 36.3 °F 35.1 °F 29.7 in Calm     95% 0 in 0 W/m2
19:40 36.3 °F 35.1 °F 29.7 in Calm   2 mph 95% 0 in 0 W/m2
19:45 36.1 °F 34.9 °F 29.7 in Calm     95% 0 in 0 W/m2
19:50 36.1 °F 34.9 °F 29.7 in Calm     95% 0 in 0 W/m2
19:55 36.1 °F 34.9 °F 29.7 in Calm     95% 0 in 0 W/m2
20:00 36 °F 34.9 °F 29.7 in Calm     96% 0 in 0 W/m2
20:05 36 °F 34.9 °F 29.7 in Calm     96% 0 in 0 W/m2
20:10 36 °F 34.7 °F 29.7 in Calm     95% 0 in 0 W/m2
20:15 36 °F 34.7 °F 29.7 in Calm     95% 0 in 0 W/m2
20:20 35.8 °F 34.5 °F 29.7 in Calm     95% 0 in 0 W/m2
20:25 35.8 °F 34.7 °F 29.7 in Calm     96% 0 in 0 W/m2
20:30 35.6 °F 34.5 °F 29.7 in Calm     96% 0 in 0 W/m2
20:35 35.4 °F 34.3 °F 29.7 in Calm     96% 0 in 0 W/m2
20:40 35.2 °F 34 °F 29.7 in Calm     95% 0 in 0 W/m2
20:45 35.1 °F 33.8 °F 29.7 in Calm     95% 0 in 0 W/m2
20:50 35.1 °F 34 °F 29.7 in Calm     96% 0 in 0 W/m2
20:55 34.9 °F 33.8 °F 29.7 in Calm     96% 0 in 0 W/m2
21:00 34.9 °F 33.8 °F 29.7 in Calm     96% 0 in 0 W/m2
21:05 34.9 °F 33.8 °F 29.7 in Calm     96% 0 in 0 W/m2
21:10 34.9 °F 33.8 °F 29.7 in Calm     96% 0 in 0 W/m2
21:15 34.9 °F 33.8 °F 29.7 in Calm     96% 0 in 0 W/m2
21:20 34.9 °F 33.8 °F 29.7 in Calm     96% 0 in 0 W/m2
21:25 34.7 °F 33.6 °F 29.7 in Calm     96% 0 in 0 W/m2
21:30 34.5 °F 33.4 °F 29.7 in Calm     96% 0 in 0 W/m2
21:35 34.3 °F 33.3 °F 29.7 in Calm     96% 0 in 0 W/m2
21:40 34.3 °F 33.3 °F 29.7 in Calm     96% 0 in 0 W/m2
21:45 34.3 °F 33.3 °F 29.8 in Calm     96% 0 in 0 W/m2
21:50 34.3 °F 33.3 °F 29.8 in Calm     96% 0 in 0 W/m2
21:56 34.3 °F 33.3 °F 29.8 in Calm     96% 0 in 0 W/m2
22:01 34.3 °F 33.3 °F 29.8 in Calm     96% 0 in 0 W/m2
22:06 34.5 °F 33.4 °F 29.8 in Calm     96% 0 in 0 W/m2
22:11 34.5 °F 33.4 °F 29.8 in Calm     96% 0 in 0 W/m2
22:16 34.5 °F 33.4 °F 29.8 in Calm     96% 0 in 0 W/m2
22:21 34.5 °F 33.4 °F 29.8 in Calm   1 mph 96% 0 in 0 W/m2
22:26 34.5 °F 33.4 °F 29.8 in Calm     96% 0 in 0 W/m2
22:31 34.5 °F 33.4 °F 29.8 in Calm     96% 0 in 0 W/m2
22:36 34.5 °F 33.4 °F 29.8 in Calm     96% 0 in 0 W/m2
22:41 34.5 °F 33.4 °F 29.8 in Calm     96% 0 in 0 W/m2
22:46 34.5 °F 33.4 °F 29.8 in Calm   1 mph 96% 0 in 0 W/m2
22:51 34.5 °F 33.4 °F 29.8 in Calm     96% 0 in 0 W/m2
22:56 34.5 °F 33.4 °F 29.8 in Calm   2 mph 96% 0 in 0 W/m2
23:01 34.3 °F 33.3 °F 29.8 in Calm   1 mph 96% 0 in 0 W/m2
23:06 34.3 °F 33.3 °F 29.8 in Calm     96% 0 in 0 W/m2
23:11 34.3 °F 33.3 °F 29.8 in Calm     96% 0 in 0 W/m2
23:16 34.2 °F 33.1 °F 29.8 in Calm     96% 0 in 0 W/m2
23:21 34.2 °F 33.1 °F 29.8 in Calm     96% 0 in 0 W/m2
23:26 34.2 °F 33.1 °F 29.8 in Calm     96% 0 in 0 W/m2
23:31 34.3 °F 33.3 °F 29.8 in Calm     96% 0 in 0 W/m2
23:36 34.3 °F 33.3 °F 29.8 in NW 0.9 mph 2 mph 96% 0 in 0 W/m2
23:41 34.3 °F 33.3 °F 29.8 in Calm     96% 0 in 0 W/m2
23:46 34.3 °F 33.3 °F 29.8 in Calm   2 mph 96% 0 in 0 W/m2
23:51 34.5 °F 33.4 °F 29.8 in Calm     96% 0 in 0 W/m2
23:56 34.5 °F 33.4 °F 29.8 in Calm     96% 0 in 0 W/m2
Juneau County Weather
Compliments of Weather Underground - 2 mb